createdAt,value
2017-12-08T00:00:13.098Z,1.60
2017-12-08T00:02:43.957Z,1.50
2017-12-08T00:05:14.826Z,1.37
2017-12-08T00:07:45.669Z,1.20
2017-12-08T00:10:16.523Z,1.27
2017-12-08T00:12:47.422Z,1.20
2017-12-08T00:15:18.272Z,1.07
2017-12-08T00:17:49.126Z,1.07
2017-12-08T00:20:19.990Z,0.90
2017-12-08T00:22:50.838Z,1.10
2017-12-08T00:25:21.678Z,1.00
2017-12-08T00:27:52.527Z,0.80
2017-12-08T00:30:23.359Z,1.33
2017-12-08T00:32:56.045Z,1.23
2017-12-08T00:35:26.903Z,1.10
2017-12-08T00:37:57.778Z,1.00
2017-12-08T00:40:28.647Z,1.20
2017-12-08T00:42:59.487Z,1.10
2017-12-08T00:45:30.327Z,1.03
2017-12-08T00:48:01.168Z,1.00
2017-12-08T00:50:32.021Z,1.10
2017-12-08T00:53:02.872Z,0.73
2017-12-08T00:55:33.709Z,0.90
2017-12-08T00:58:04.572Z,1.10
2017-12-08T01:00:35.420Z,0.90
2017-12-08T01:03:06.291Z,0.90
2017-12-08T01:05:37.116Z,1.07
2017-12-08T01:08:07.955Z,0.70
2017-12-08T01:10:38.791Z,0.80
2017-12-08T01:13:09.639Z,0.97
2017-12-08T01:15:40.512Z,1.17
2017-12-08T01:18:11.362Z,1.00
2017-12-08T01:20:42.204Z,0.87
2017-12-08T01:23:13.066Z,0.93
2017-12-08T01:25:43.907Z,0.90
2017-12-08T01:28:14.807Z,1.00
2017-12-08T01:30:45.637Z,1.00
2017-12-08T01:33:16.515Z,1.10
2017-12-08T01:35:47.381Z,0.83
2017-12-08T01:38:18.225Z,1.10
2017-12-08T01:40:49.074Z,1.20
2017-12-08T01:43:19.966Z,0.87
2017-12-08T01:45:50.803Z,0.90
2017-12-08T01:48:21.676Z,0.70
2017-12-08T01:50:52.522Z,1.00
2017-12-08T01:53:23.572Z,0.63
2017-12-08T01:55:54.391Z,0.82
2017-12-08T01:58:25.228Z,1.07
2017-12-08T02:00:56.083Z,0.80
2017-12-08T02:03:26.944Z,0.80
2017-12-08T02:05:57.812Z,1.07
2017-12-08T02:08:28.672Z,0.70
2017-12-08T02:10:59.635Z,0.80
2017-12-08T02:13:30.440Z,0.73
2017-12-08T02:16:01.307Z,0.90
2017-12-08T02:18:32.133Z,0.73
2017-12-08T02:21:03.000Z,0.63
2017-12-08T02:23:33.851Z,0.70
2017-12-08T02:26:04.715Z,0.60
2017-12-08T02:28:35.552Z,0.70
2017-12-08T02:31:06.408Z,0.50
2017-12-08T02:33:37.286Z,0.73
2017-12-08T02:36:08.123Z,0.57
2017-12-08T02:38:38.971Z,0.90
2017-12-08T02:41:09.797Z,0.80
2017-12-08T02:43:40.631Z,0.60
2017-12-08T02:46:11.463Z,0.60
2017-12-08T02:48:42.321Z,0.73
2017-12-08T02:51:13.170Z,0.60
2017-12-08T02:53:44.028Z,0.60
2017-12-08T02:56:14.871Z,0.60
2017-12-08T02:58:45.738Z,0.60
2017-12-08T03:01:16.589Z,0.93
2017-12-08T03:03:47.432Z,0.40
2017-12-08T03:06:18.259Z,0.60
2017-12-08T03:08:49.101Z,0.77
2017-12-08T03:11:19.947Z,0.50
2017-12-08T03:13:50.800Z,0.70
2017-12-08T03:16:21.631Z,0.70
2017-12-08T03:18:52.500Z,0.67
2017-12-08T03:21:23.336Z,0.57
2017-12-08T03:23:54.199Z,0.60
2017-12-08T03:26:25.023Z,0.60
2017-12-08T03:28:55.845Z,0.70
2017-12-08T03:31:26.659Z,0.50
2017-12-08T03:33:57.496Z,0.60
2017-12-08T03:36:28.366Z,0.70
2017-12-08T03:38:59.224Z,0.40
2017-12-08T03:41:30.075Z,0.63
2017-12-08T03:44:00.946Z,0.60
2017-12-08T03:46:31.797Z,0.70
2017-12-08T03:49:02.658Z,0.57
2017-12-08T03:51:33.512Z,0.90
2017-12-08T03:54:04.362Z,0.63
2017-12-08T03:56:35.223Z,0.50
2017-12-08T03:59:06.047Z,0.50
2017-12-08T04:01:36.870Z,0.70
2017-12-08T04:04:07.691Z,0.60
2017-12-08T04:06:38.551Z,0.70
2017-12-08T04:09:09.407Z,0.70
2017-12-08T04:11:40.260Z,0.60
2017-12-08T04:14:11.087Z,0.70
2017-12-08T04:16:41.907Z,0.73
2017-12-08T04:19:12.743Z,0.70
2017-12-08T04:21:43.598Z,1.03
2017-12-08T04:24:14.427Z,0.70
2017-12-08T04:26:45.276Z,0.90
2017-12-08T04:29:16.128Z,0.60
2017-12-08T04:31:47.027Z,0.50
2017-12-08T04:34:17.871Z,0.83
2017-12-08T04:36:48.699Z,0.67
2017-12-08T04:39:19.526Z,0.87
2017-12-08T04:41:50.351Z,0.57
2017-12-08T04:44:21.186Z,0.70
2017-12-08T04:46:52.023Z,0.70
2017-12-08T04:49:23.724Z,0.60
2017-12-08T04:51:54.568Z,0.77
2017-12-08T04:54:25.396Z,0.50
2017-12-08T04:56:56.243Z,0.50
2017-12-08T04:59:27.104Z,0.83
2017-12-08T05:01:57.951Z,0.50
2017-12-08T05:04:28.804Z,0.63
2017-12-08T05:06:59.650Z,0.83
2017-12-08T05:09:30.508Z,0.60
2017-12-08T05:12:01.348Z,0.53
2017-12-08T05:14:32.210Z,0.60
2017-12-08T05:17:03.046Z,0.53
2017-12-08T05:19:33.895Z,0.50
2017-12-08T05:22:04.740Z,0.50
2017-12-08T05:24:35.585Z,0.60
2017-12-08T05:27:06.485Z,0.57
2017-12-08T05:29:37.338Z,0.73
2017-12-08T05:32:08.171Z,0.60
2017-12-08T05:34:39.011Z,0.70
2017-12-08T05:37:09.874Z,0.50
2017-12-08T05:39:40.746Z,0.60
2017-12-08T05:42:11.607Z,0.60
2017-12-08T05:44:42.484Z,0.70
2017-12-08T05:47:13.319Z,0.63
2017-12-08T05:49:44.158Z,0.53
2017-12-08T05:52:15.019Z,0.60
2017-12-08T05:54:45.851Z,0.40
2017-12-08T05:57:16.690Z,0.43
2017-12-08T05:59:47.526Z,0.50
2017-12-08T06:02:18.343Z,0.40
2017-12-08T06:04:49.166Z,0.50
2017-12-08T06:07:19.996Z,0.67
2017-12-08T06:09:50.835Z,0.50
2017-12-08T06:12:21.701Z,0.80
2017-12-08T06:14:52.558Z,0.60
2017-12-08T06:17:23.415Z,0.67
2017-12-08T06:19:54.235Z,0.77
2017-12-08T06:22:25.196Z,0.50
2017-12-08T06:24:56.039Z,0.50
2017-12-08T06:27:26.876Z,0.33
2017-12-08T06:29:57.718Z,0.50
2017-12-08T06:32:28.544Z,0.70
2017-12-08T06:34:59.406Z,0.50
2017-12-08T06:37:30.234Z,0.90
2017-12-08T06:40:01.075Z,0.73
2017-12-08T06:42:31.895Z,0.50
2017-12-08T06:45:02.727Z,0.40
2017-12-08T06:47:33.574Z,0.40
2017-12-08T06:50:04.429Z,0.60
2017-12-08T06:52:35.272Z,0.70
2017-12-08T06:55:06.103Z,0.50
2017-12-08T06:57:36.948Z,0.60
2017-12-08T07:00:07.829Z,0.50
2017-12-08T07:02:38.664Z,0.80
2017-12-08T07:05:09.500Z,0.60
2017-12-08T07:07:40.468Z,0.50
2017-12-08T07:10:11.288Z,0.50
2017-12-08T07:12:42.154Z,0.43
2017-12-08T07:15:13.000Z,0.60
2017-12-08T07:17:43.869Z,0.50
2017-12-08T07:20:14.699Z,0.57
2017-12-08T07:22:45.531Z,0.70
2017-12-08T07:25:16.360Z,0.40
2017-12-08T07:27:47.231Z,0.43
2017-12-08T07:30:18.064Z,0.43
2017-12-08T07:32:48.907Z,0.80
2017-12-08T07:35:19.881Z,0.40
2017-12-08T07:37:50.709Z,0.67
2017-12-08T07:40:21.560Z,0.60
2017-12-08T07:42:52.412Z,0.50
2017-12-08T07:45:23.266Z,0.50
2017-12-08T07:47:54.116Z,0.53
2017-12-08T07:50:24.963Z,0.77
2017-12-08T07:52:55.798Z,0.60
2017-12-08T07:55:26.655Z,0.53
2017-12-08T07:57:57.623Z,0.40
2017-12-08T08:00:28.459Z,0.70
2017-12-08T08:02:59.285Z,0.57
2017-12-08T08:05:30.118Z,0.47
2017-12-08T08:08:00.948Z,0.77
2017-12-08T08:10:31.789Z,0.60
2017-12-08T08:13:02.647Z,0.70
2017-12-08T08:15:33.499Z,0.73
2017-12-08T08:18:04.351Z,0.90
2017-12-08T08:20:35.206Z,0.50
2017-12-08T08:23:06.046Z,0.90
2017-12-08T08:25:36.899Z,0.60
2017-12-08T08:28:07.735Z,0.70
2017-12-08T08:30:38.623Z,0.80
2017-12-08T08:33:09.463Z,0.50
2017-12-08T08:35:40.338Z,0.43
2017-12-08T08:38:11.159Z,0.70
2017-12-08T08:40:42.002Z,0.60
2017-12-08T08:43:12.858Z,0.40
2017-12-08T08:45:43.699Z,0.50
2017-12-08T08:48:14.546Z,0.40
2017-12-08T08:50:45.516Z,0.50
2017-12-08T08:53:16.363Z,0.60
2017-12-08T08:55:47.207Z,0.70
2017-12-08T08:58:18.068Z,0.50
2017-12-08T09:00:48.899Z,0.50
2017-12-08T09:03:19.747Z,0.67
2017-12-08T09:05:50.620Z,0.90
2017-12-08T09:08:21.465Z,0.60
2017-12-08T09:10:52.311Z,0.40
2017-12-08T09:13:23.148Z,0.50
2017-12-08T09:15:53.986Z,0.70
2017-12-08T09:18:24.818Z,0.60
2017-12-08T09:20:55.640Z,0.50
2017-12-08T09:23:26.451Z,0.60
2017-12-08T09:25:57.279Z,0.80
2017-12-08T09:28:28.110Z,0.50
2017-12-08T09:30:58.935Z,1.03
2017-12-08T09:33:29.751Z,0.70
2017-12-08T09:36:00.603Z,0.90
2017-12-08T09:38:31.451Z,1.10
2017-12-08T09:41:02.386Z,0.80
2017-12-08T09:43:33.191Z,0.50
2017-12-08T09:46:04.049Z,0.90
2017-12-08T09:48:34.918Z,0.70
2017-12-08T09:51:05.788Z,1.00
2017-12-08T09:53:36.642Z,0.93
2017-12-08T09:56:07.490Z,0.90
2017-12-08T09:58:38.350Z,0.80
2017-12-08T10:01:09.187Z,0.60
2017-12-08T10:03:40.019Z,0.60
2017-12-08T10:06:10.843Z,0.80
2017-12-08T10:08:41.690Z,1.20
2017-12-08T10:11:12.539Z,0.70
2017-12-08T10:13:43.407Z,0.80
2017-12-08T10:16:14.256Z,1.07
2017-12-08T10:18:45.122Z,0.90
2017-12-08T10:21:15.978Z,0.73
2017-12-08T10:23:46.839Z,0.70
2017-12-08T10:26:17.667Z,0.80
2017-12-08T10:28:48.539Z,0.70
2017-12-08T10:31:20.534Z,0.77
2017-12-08T10:33:51.372Z,0.88
2017-12-08T10:36:22.308Z,0.80
2017-12-08T10:38:53.156Z,1.00
2017-12-08T10:41:24.012Z,0.90
2017-12-08T10:43:54.880Z,0.80
2017-12-08T10:46:25.748Z,0.93
2017-12-08T10:48:56.595Z,1.27
2017-12-08T10:51:27.536Z,1.20
2017-12-08T10:53:58.367Z,1.17
2017-12-08T10:56:29.227Z,0.97
2017-12-08T10:59:00.062Z,1.20
2017-12-08T11:01:30.895Z,1.33
2017-12-08T11:04:01.806Z,0.80
2017-12-08T11:06:32.624Z,1.13
2017-12-08T11:09:03.469Z,0.70
2017-12-08T11:11:34.307Z,1.00
2017-12-08T11:14:05.139Z,1.63
2017-12-08T11:16:35.973Z,0.93
2017-12-08T11:19:06.788Z,1.50
2017-12-08T11:21:37.646Z,1.40
2017-12-08T11:24:08.491Z,4.70
2017-12-08T11:26:39.340Z,1.40
2017-12-08T11:29:10.196Z,1.57
2017-12-08T11:31:41.070Z,2.37
2017-12-08T11:34:11.918Z,2.60
2017-12-08T11:36:42.779Z,2.90
2017-12-08T11:39:13.628Z,2.97
2017-12-08T11:41:44.491Z,2.67
2017-12-08T11:44:15.387Z,3.20
2017-12-08T11:46:46.257Z,3.40
2017-12-08T11:49:17.201Z,3.00
2017-12-08T11:51:48.059Z,2.87
2017-12-08T11:54:18.911Z,2.93
2017-12-08T11:56:49.778Z,3.77
2017-12-08T11:59:20.619Z,2.70
2017-12-08T12:01:51.510Z,3.33
2017-12-08T12:04:22.351Z,3.20
2017-12-08T12:06:53.217Z,2.17
2017-12-08T12:09:24.065Z,2.47
2017-12-08T12:11:54.927Z,2.30
2017-12-08T12:14:25.759Z,3.13
2017-12-08T12:16:56.595Z,5.70
2017-12-08T12:19:27.411Z,7.70
2017-12-08T12:21:58.260Z,8.40
2017-12-08T12:24:29.128Z,6.87
2017-12-08T12:26:59.999Z,12.50
2017-12-08T12:29:30.838Z,5.50
2017-12-08T12:32:01.681Z,2.40
2017-12-08T12:34:32.536Z,1.97
2017-12-08T12:37:03.413Z,1.93
2017-12-08T12:39:34.251Z,1.97
2017-12-08T12:42:05.118Z,1.90
2017-12-08T12:44:36.232Z,2.00
2017-12-08T12:47:07.113Z,1.70
2017-12-08T12:49:37.995Z,1.67
2017-12-08T12:52:08.834Z,2.00
2017-12-08T12:54:39.696Z,2.10
2017-12-08T12:57:10.587Z,2.60
2017-12-08T12:59:41.429Z,1.97
2017-12-08T13:02:12.319Z,2.10
2017-12-08T13:04:43.172Z,1.40
2017-12-08T13:07:14.039Z,1.03
2017-12-08T13:09:44.956Z,0.80
2017-12-08T13:12:15.780Z,0.60
2017-12-08T13:14:46.659Z,0.50
2017-12-08T13:17:17.482Z,0.37
2017-12-08T13:19:48.325Z,0.40
2017-12-08T13:22:19.191Z,0.37
2017-12-08T13:24:50.144Z,0.50
2017-12-08T13:27:20.992Z,0.40
2017-12-08T13:29:51.855Z,0.53
2017-12-08T13:32:22.696Z,0.50
2017-12-08T13:34:53.560Z,0.53
2017-12-08T13:37:24.394Z,0.37
2017-12-08T13:39:55.267Z,0.30
2017-12-08T13:42:26.209Z,0.40
2017-12-08T13:44:57.060Z,0.30
2017-12-08T13:47:27.902Z,0.37
2017-12-08T13:49:58.782Z,0.37
2017-12-08T13:52:29.615Z,0.47
2017-12-08T13:55:00.498Z,0.30
2017-12-08T13:57:31.415Z,0.40
2017-12-08T14:00:02.280Z,0.40
2017-12-08T14:02:33.157Z,0.97
2017-12-08T14:05:04.007Z,0.40
2017-12-08T14:07:34.883Z,0.50
2017-12-08T14:10:05.752Z,0.40
2017-12-08T14:12:36.607Z,0.60
2017-12-08T14:15:07.489Z,0.30
2017-12-08T14:17:38.368Z,0.33
2017-12-08T14:20:09.240Z,0.20
2017-12-08T14:22:40.088Z,0.30
2017-12-08T14:25:10.947Z,0.40
2017-12-08T14:27:41.824Z,0.30
2017-12-08T14:30:12.663Z,0.30
2017-12-08T14:32:43.983Z,0.50
2017-12-08T14:35:14.843Z,0.80
2017-12-08T14:37:45.853Z,0.70
2017-12-08T14:40:16.676Z,0.73
2017-12-08T14:42:47.538Z,1.73
2017-12-08T14:45:18.420Z,1.03
2017-12-08T14:47:49.280Z,1.17
2017-12-08T14:50:20.099Z,1.43
2017-12-08T14:52:50.940Z,1.30
2017-12-08T14:55:21.780Z,1.30
2017-12-08T14:57:52.625Z,1.10
2017-12-08T15:00:23.491Z,1.20
2017-12-08T15:02:54.382Z,0.93
2017-12-08T15:05:25.236Z,1.10
2017-12-08T15:07:56.087Z,1.03
2017-12-08T15:10:26.919Z,0.97
2017-12-08T15:12:57.881Z,0.97
2017-12-08T15:15:28.719Z,1.40
2017-12-08T15:17:59.562Z,1.10
2017-12-08T15:20:30.429Z,0.93
2017-12-08T15:23:01.312Z,0.93
2017-12-08T15:25:32.153Z,0.97
2017-12-08T15:28:03.008Z,1.00
2017-12-08T15:30:33.881Z,0.90
2017-12-08T15:33:04.745Z,0.70
2017-12-08T15:35:35.584Z,0.77
2017-12-08T15:38:06.443Z,0.87
2017-12-08T15:40:37.296Z,0.90
2017-12-08T15:43:08.170Z,0.80
2017-12-08T15:45:39.506Z,0.80
2017-12-08T15:48:10.362Z,0.77
2017-12-08T15:50:41.248Z,0.77
2017-12-08T15:53:12.095Z,0.90
2017-12-08T15:55:42.956Z,0.70
2017-12-08T15:58:13.874Z,0.93
2017-12-08T16:00:44.744Z,0.70
2017-12-08T16:03:15.595Z,0.90
2017-12-08T16:05:46.472Z,0.60
2017-12-08T16:08:17.338Z,0.50
2017-12-08T16:10:48.187Z,0.60
2017-12-08T16:13:19.047Z,0.57
2017-12-08T16:15:49.911Z,0.60
2017-12-08T16:18:20.751Z,0.90
2017-12-08T16:20:51.607Z,0.60
2017-12-08T16:23:22.465Z,0.50
2017-12-08T16:25:53.351Z,0.47
2017-12-08T16:28:24.195Z,0.50
2017-12-08T16:30:55.069Z,0.70
2017-12-08T16:33:25.929Z,0.90
2017-12-08T16:35:56.809Z,0.53
2017-12-08T16:38:27.669Z,0.40
2017-12-08T16:40:58.512Z,0.50
2017-12-08T16:43:29.371Z,0.53
2017-12-08T16:46:00.207Z,0.53
2017-12-08T16:48:31.063Z,0.70
2017-12-08T16:51:01.909Z,0.63
2017-12-08T16:53:32.763Z,0.60
2017-12-08T16:56:03.650Z,0.70
2017-12-08T16:58:34.504Z,0.70
2017-12-08T17:01:05.386Z,0.63
2017-12-08T17:03:36.254Z,0.60
2017-12-08T17:06:07.106Z,0.50
2017-12-08T17:08:38.035Z,0.40
2017-12-08T17:11:08.860Z,0.30
2017-12-08T17:13:39.728Z,0.50
2017-12-08T17:16:10.607Z,0.57
2017-12-08T17:18:41.513Z,0.40
2017-12-08T17:21:12.371Z,0.30
2017-12-08T17:23:43.227Z,0.30
2017-12-08T17:26:14.197Z,0.40
2017-12-08T17:28:45.035Z,0.50
2017-12-08T17:31:15.926Z,0.57
2017-12-08T17:33:46.770Z,0.40
2017-12-08T17:36:17.660Z,0.30
2017-12-08T17:38:48.540Z,0.40
2017-12-08T17:41:19.421Z,0.50
2017-12-08T17:43:50.273Z,0.50
2017-12-08T17:46:21.150Z,0.40
2017-12-08T17:48:52.000Z,0.43
2017-12-08T17:51:22.875Z,0.37
2017-12-08T17:53:53.732Z,0.40
2017-12-08T17:56:24.588Z,0.37
2017-12-08T17:58:55.450Z,0.40
2017-12-08T18:01:26.323Z,0.50
2017-12-08T18:03:57.189Z,0.30
2017-12-08T18:06:28.072Z,0.50
2017-12-08T18:08:58.924Z,0.40
2017-12-08T18:11:29.765Z,0.40
2017-12-08T18:14:00.650Z,0.40
2017-12-08T18:16:31.526Z,0.60
2017-12-08T18:19:02.425Z,0.40
2017-12-08T18:21:33.254Z,0.50
2017-12-08T18:24:04.723Z,0.50
2017-12-08T18:26:35.572Z,0.60
2017-12-08T18:29:06.438Z,0.40
2017-12-08T18:31:37.273Z,0.50
2017-12-08T18:34:08.171Z,0.40
2017-12-08T18:36:39.480Z,0.40
2017-12-08T18:39:10.352Z,0.32
2017-12-08T18:41:41.227Z,0.77
2017-12-08T18:44:12.098Z,0.40
2017-12-08T18:46:42.985Z,0.53
2017-12-08T18:49:13.859Z,0.50
2017-12-08T18:51:44.723Z,0.50
2017-12-08T18:54:15.587Z,0.50
2017-12-08T18:56:46.429Z,0.60
2017-12-08T18:59:17.329Z,0.60
2017-12-08T19:01:48.261Z,0.60
2017-12-08T19:04:19.156Z,0.60
2017-12-08T19:06:50.134Z,0.57
2017-12-08T19:09:21.018Z,1.00
2017-12-08T19:11:51.871Z,0.60
2017-12-08T19:14:22.771Z,0.60
2017-12-08T19:16:53.636Z,1.00
2017-12-08T19:19:24.618Z,0.60
2017-12-08T19:21:55.538Z,1.13
2017-12-08T19:24:26.610Z,0.60
2017-12-08T19:26:57.542Z,0.70
2017-12-08T19:29:28.413Z,0.70
2017-12-08T19:31:59.415Z,0.50
2017-12-08T19:34:30.483Z,0.82
2017-12-08T19:37:01.461Z,0.40
2017-12-08T19:39:32.312Z,0.80
2017-12-08T19:42:03.599Z,0.40
2017-12-08T19:44:34.480Z,0.50
2017-12-08T19:47:05.445Z,0.60
2017-12-08T19:49:36.329Z,0.60
2017-12-08T19:52:07.240Z,0.70
2017-12-08T19:54:39.173Z,0.77
2017-12-08T19:57:10.674Z,0.80
2017-12-08T19:59:41.924Z,0.75
2017-12-08T20:02:13.887Z,0.70
2017-12-08T20:04:45.640Z,0.68
2017-12-08T20:07:16.885Z,0.70
2017-12-08T20:09:48.017Z,0.70
2017-12-08T20:12:20.203Z,0.68
2017-12-08T20:14:51.651Z,0.70
2017-12-08T20:17:22.849Z,0.60
2017-12-08T20:19:56.402Z,0.40
2017-12-08T20:22:28.774Z,0.77
2017-12-08T20:24:59.916Z,0.70
2017-12-08T20:27:31.008Z,0.70
2017-12-08T20:30:03.030Z,0.70
2017-12-08T20:32:35.816Z,0.70
2017-12-08T20:35:09.003Z,0.75
2017-12-08T20:37:41.273Z,0.75
2017-12-08T20:40:13.849Z,0.75
2017-12-08T20:42:46.385Z,0.80
2017-12-08T20:45:18.703Z,1.10
2017-12-08T20:47:51.072Z,0.82
2017-12-08T20:50:22.734Z,1.10
2017-12-08T20:52:55.206Z,1.00
2017-12-08T20:55:27.485Z,0.60
2017-12-08T20:57:59.856Z,0.93
2017-12-08T21:00:31.406Z,0.80
2017-12-08T21:03:03.162Z,0.80
2017-12-08T21:05:35.752Z,0.70
2017-12-08T21:08:07.955Z,0.80
2017-12-08T21:10:40.287Z,0.60
2017-12-08T21:13:12.042Z,0.93
2017-12-08T21:15:44.620Z,0.80
2017-12-08T21:18:16.594Z,0.68
2017-12-08T21:20:47.533Z,0.68
2017-12-08T21:23:19.299Z,0.90
2017-12-08T21:25:51.425Z,0.70
2017-12-08T21:28:22.328Z,0.50
2017-12-08T21:30:53.532Z,1.17
2017-12-08T21:33:24.524Z,0.68
2017-12-08T21:35:55.393Z,1.03
2017-12-08T21:38:28.155Z,0.57
2017-12-08T21:40:59.237Z,0.73
2017-12-08T21:43:30.312Z,0.60
2017-12-08T21:46:01.525Z,0.93
2017-12-08T21:48:32.470Z,0.70
2017-12-08T21:51:03.984Z,0.60
2017-12-08T21:53:35.491Z,0.50
2017-12-08T21:56:07.138Z,0.60
2017-12-08T21:58:38.645Z,0.65
2017-12-08T22:01:09.516Z,0.65
2017-12-08T22:03:40.396Z,0.40
2017-12-08T22:06:11.295Z,0.50
2017-12-08T22:08:42.185Z,0.30
2017-12-08T22:11:13.056Z,0.30
2017-12-08T22:13:43.959Z,0.40
2017-12-08T22:16:14.844Z,0.40
2017-12-08T22:18:45.753Z,0.47
2017-12-08T22:21:16.667Z,0.40
2017-12-08T22:23:47.782Z,0.40
2017-12-08T22:26:18.709Z,0.30
2017-12-08T22:28:49.578Z,0.47
2017-12-08T22:31:20.447Z,0.40
2017-12-08T22:33:51.356Z,0.40
2017-12-08T22:36:22.231Z,0.30
2017-12-08T22:38:53.116Z,0.60
2017-12-08T22:41:24.037Z,0.30
2017-12-08T22:43:55.075Z,0.50
2017-12-08T22:46:26.023Z,0.28
2017-12-08T22:48:56.880Z,0.30
2017-12-08T22:51:27.755Z,0.43
2017-12-08T22:53:58.603Z,0.40
2017-12-08T22:56:29.479Z,0.40
2017-12-08T22:59:01.195Z,0.30
2017-12-08T23:01:32.070Z,0.43
2017-12-08T23:04:02.946Z,0.40
2017-12-08T23:06:33.866Z,0.40
2017-12-08T23:09:04.748Z,0.30
2017-12-08T23:11:35.615Z,0.20
2017-12-08T23:14:06.468Z,0.40
2017-12-08T23:16:37.368Z,0.40
2017-12-08T23:19:08.252Z,0.47
2017-12-08T23:21:39.207Z,0.40
2017-12-08T23:24:11.252Z,0.60
2017-12-08T23:26:42.121Z,0.55
2017-12-08T23:29:12.956Z,0.60
2017-12-08T23:31:43.815Z,0.50
2017-12-08T23:34:14.691Z,0.53
2017-12-08T23:36:45.545Z,0.50
2017-12-08T23:39:16.393Z,0.40
2017-12-08T23:41:47.270Z,0.60
2017-12-08T23:44:18.126Z,0.60
2017-12-08T23:46:48.963Z,0.60
2017-12-08T23:49:19.827Z,0.57
2017-12-08T23:51:50.675Z,0.50
2017-12-08T23:54:21.532Z,0.60
2017-12-08T23:56:52.417Z,0.60
2017-12-08T23:59:23.275Z,0.50
